createdAt,value
2023-03-27T00:00:55.849Z,6.63
2023-03-27T00:03:24.436Z,9.07
2023-03-27T00:06:13.817Z,7.93
2023-03-27T00:08:40.325Z,8.40
2023-03-27T00:11:07.081Z,8.05
2023-03-27T00:13:34.005Z,6.38
2023-03-27T00:16:00.770Z,8.05
2023-03-27T00:18:28.438Z,5.70
2023-03-27T00:20:58.024Z,7.90
2023-03-27T00:23:25.346Z,8.13
2023-03-27T00:25:52.224Z,5.88
2023-03-27T00:28:18.856Z,7.15
2023-03-27T00:30:45.395Z,6.22
2023-03-27T00:33:12.784Z,5.97
2023-03-27T00:35:44.369Z,7.57
2023-03-27T00:38:10.866Z,9.55
2023-03-27T00:40:37.858Z,8.65
2023-03-27T00:43:22.554Z,7.35
2023-03-27T00:45:52.694Z,8.60
2023-03-27T00:48:19.714Z,8.82
2023-03-27T00:50:48.228Z,8.45
2023-03-27T00:53:18.119Z,7.10
2023-03-27T00:55:49.107Z,7.97
2023-03-27T00:58:46.887Z,7.03
2023-03-27T01:01:15.887Z,10.95
2023-03-27T01:03:45.658Z,8.93
2023-03-27T01:06:14.843Z,13.32
2023-03-27T01:08:43.941Z,12.73
2023-03-27T01:11:31.374Z,9.73
2023-03-27T01:14:22.712Z,9.18
2023-03-27T01:17:13.340Z,7.82
2023-03-27T01:19:48.847Z,7.18
2023-03-27T01:23:06.561Z,8.25
2023-03-27T01:25:41.739Z,6.70
2023-03-27T01:28:42.819Z,8.63
2023-03-27T01:31:09.252Z,5.75
2023-03-27T01:34:07.696Z,8.73
2023-03-27T01:36:47.420Z,6.72
2023-03-27T01:39:36.170Z,6.90
2023-03-27T01:42:08.593Z,7.13
2023-03-27T01:45:01.787Z,6.95
2023-03-27T01:47:40.150Z,8.63
2023-03-27T01:50:21.813Z,9.02
2023-03-27T01:53:00.124Z,9.30
2023-03-27T01:55:31.551Z,10.07
2023-03-27T01:58:14.703Z,10.77
2023-03-27T02:00:51.406Z,8.80
2023-03-27T02:03:48.812Z,7.13
2023-03-27T02:06:23.880Z,8.10
2023-03-27T02:08:59.423Z,8.48
2023-03-27T02:11:41.350Z,7.00
2023-03-27T02:14:16.353Z,7.40
2023-03-27T02:16:48.154Z,8.40
2023-03-27T02:19:22.292Z,9.03
2023-03-27T02:21:49.330Z,8.63
2023-03-27T02:24:19.855Z,9.13
2023-03-27T02:26:50.819Z,10.02
2023-03-27T02:30:02.243Z,9.50
2023-03-27T02:32:53.360Z,9.27
2023-03-27T02:35:55.896Z,10.50
2023-03-27T02:38:56.755Z,7.80
2023-03-27T02:41:50.862Z,10.35
2023-03-27T02:44:48.252Z,9.77
2023-03-27T02:47:36.230Z,9.43
2023-03-27T02:50:17.979Z,7.82
2023-03-27T02:52:50.235Z,9.55
2023-03-27T02:55:46.020Z,9.50
2023-03-27T02:58:22.197Z,9.18
2023-03-27T03:00:50.691Z,10.47
2023-03-27T03:03:23.997Z,10.50
2023-03-27T03:05:50.489Z,14.68
2023-03-27T03:08:16.991Z,16.23
2023-03-27T03:10:45.070Z,16.02
2023-03-27T03:13:11.769Z,16.50
2023-03-27T03:15:39.175Z,16.27
2023-03-27T03:18:06.060Z,13.60
2023-03-27T03:20:32.744Z,12.77
2023-03-27T03:22:59.212Z,15.02
2023-03-27T03:25:25.946Z,22.13
2023-03-27T03:27:52.715Z,14.82
2023-03-27T03:30:19.301Z,13.50
2023-03-27T03:32:45.982Z,14.32
2023-03-27T03:35:12.482Z,15.30
2023-03-27T03:37:39.047Z,16.20
2023-03-27T03:40:10.015Z,15.38
2023-03-27T03:42:36.477Z,17.30
2023-03-27T03:45:02.980Z,14.27
2023-03-27T03:47:29.627Z,16.08
2023-03-27T03:49:56.105Z,16.40
2023-03-27T03:52:22.553Z,16.52
2023-03-27T03:54:49.119Z,15.20
2023-03-27T03:57:15.702Z,15.13
2023-03-27T03:59:42.404Z,14.18
2023-03-27T04:02:09.040Z,13.40
2023-03-27T04:04:35.504Z,13.13
2023-03-27T04:07:01.956Z,14.00
2023-03-27T04:09:29.102Z,14.02
2023-03-27T04:11:55.585Z,14.20
2023-03-27T04:14:22.267Z,10.33
2023-03-27T04:16:48.851Z,13.60
2023-03-27T04:19:15.313Z,15.05
2023-03-27T04:21:41.783Z,12.98
2023-03-27T04:24:08.322Z,11.55
2023-03-27T04:26:34.986Z,12.53
2023-03-27T04:29:01.518Z,11.75
2023-03-27T04:31:28.131Z,9.73
2023-03-27T04:33:54.644Z,11.90
2023-03-27T04:36:21.472Z,10.52
2023-03-27T04:38:48.094Z,12.73
2023-03-27T04:41:14.704Z,14.38
2023-03-27T04:43:41.312Z,14.90
2023-03-27T04:46:08.255Z,17.23
2023-03-27T04:48:35.441Z,14.00
2023-03-27T04:51:01.928Z,14.93
2023-03-27T04:53:28.482Z,11.65
2023-03-27T04:55:54.949Z,16.67
2023-03-27T04:58:21.421Z,13.13
2023-03-27T05:00:48.018Z,12.68
2023-03-27T05:03:14.568Z,11.23
2023-03-27T05:05:41.082Z,11.18
2023-03-27T05:08:07.594Z,12.90
2023-03-27T05:10:34.086Z,20.38
2023-03-27T05:13:00.975Z,12.68
2023-03-27T05:15:27.608Z,12.47
2023-03-27T05:17:54.353Z,12.70
2023-03-27T05:20:21.675Z,11.45
2023-03-27T05:22:48.976Z,9.48
2023-03-27T05:25:15.746Z,13.27
2023-03-27T05:27:50.046Z,10.77
2023-03-27T05:30:19.075Z,10.20
2023-03-27T05:32:47.614Z,11.98
2023-03-27T05:35:15.773Z,7.65
2023-03-27T05:37:45.733Z,13.88
2023-03-27T05:40:12.472Z,12.50
2023-03-27T05:42:43.092Z,9.82
2023-03-27T05:45:10.058Z,9.43
2023-03-27T05:47:48.266Z,15.02
2023-03-27T05:50:16.295Z,14.32
2023-03-27T05:52:42.795Z,14.77
2023-03-27T05:55:09.795Z,15.00
2023-03-27T05:57:39.923Z,19.30
2023-03-27T06:00:09.511Z,17.42
2023-03-27T06:02:36.208Z,19.02
2023-03-27T06:05:02.753Z,17.37
2023-03-27T06:07:29.221Z,20.27
2023-03-27T06:09:55.734Z,19.15
2023-03-27T06:12:22.356Z,25.23
2023-03-27T06:14:49.708Z,22.08
2023-03-27T06:17:16.321Z,16.70
2023-03-27T06:19:42.846Z,17.55
2023-03-27T06:22:09.305Z,16.45
2023-03-27T06:24:35.829Z,16.48
2023-03-27T06:27:02.317Z,9.55
2023-03-27T06:29:28.790Z,12.93
2023-03-27T06:31:55.692Z,17.08
2023-03-27T06:34:22.169Z,17.00
2023-03-27T06:36:48.680Z,16.15
2023-03-27T06:39:16.389Z,15.43
2023-03-27T06:41:42.848Z,15.57
2023-03-27T06:44:09.417Z,15.13
2023-03-27T06:46:45.154Z,14.68
2023-03-27T06:49:12.339Z,13.40
2023-03-27T06:51:38.993Z,12.48
2023-03-27T06:54:05.574Z,15.17
2023-03-27T06:56:32.107Z,17.88
2023-03-27T06:58:58.819Z,13.70
2023-03-27T07:01:25.372Z,9.18
2023-03-27T07:03:51.886Z,7.30
2023-03-27T07:06:18.421Z,8.13
2023-03-27T07:08:46.534Z,10.88
2023-03-27T07:11:14.309Z,8.52
2023-03-27T07:13:41.015Z,7.13
2023-03-27T07:16:09.795Z,5.93
2023-03-27T07:18:39.555Z,7.00
2023-03-27T07:21:06.386Z,10.73
2023-03-27T07:23:32.846Z,6.20
2023-03-27T07:26:00.567Z,10.93
2023-03-27T07:28:27.260Z,10.45
2023-03-27T07:30:53.775Z,10.43
2023-03-27T07:33:20.485Z,7.82
2023-03-27T07:35:47.963Z,6.22
2023-03-27T07:38:14.718Z,8.02
2023-03-27T07:40:44.463Z,9.82
2023-03-27T07:43:11.072Z,8.13
2023-03-27T07:45:37.803Z,9.93
2023-03-27T07:48:06.220Z,9.55
2023-03-27T07:50:32.773Z,9.57
2023-03-27T07:52:59.322Z,8.35
2023-03-27T07:55:25.848Z,9.17
2023-03-27T08:00:22.019Z,9.05
2023-03-27T08:02:49.182Z,10.25
2023-03-27T08:05:17.227Z,8.23
2023-03-27T08:07:43.996Z,8.03
2023-03-27T08:10:11.319Z,7.82
2023-03-27T08:12:38.213Z,8.55
2023-03-27T08:15:06.727Z,11.32
2023-03-27T08:17:33.565Z,8.63
2023-03-27T08:20:00.400Z,7.63
2023-03-27T08:22:26.874Z,7.68
2023-03-27T08:24:53.321Z,14.57
2023-03-27T08:27:19.949Z,7.35
2023-03-27T08:29:46.454Z,12.00
2023-03-27T08:32:13.021Z,9.53
2023-03-27T08:34:39.658Z,8.80
2023-03-27T08:37:07.552Z,8.00
2023-03-27T08:39:34.288Z,7.68
2023-03-27T08:42:04.717Z,6.85
2023-03-27T08:44:33.031Z,9.07
2023-03-27T08:47:28.000Z,6.85
2023-03-27T08:49:58.670Z,7.72
2023-03-27T08:52:28.707Z,8.43
2023-03-27T08:55:07.652Z,11.00
2023-03-27T08:57:34.289Z,9.90
2023-03-27T09:00:01.188Z,7.72
2023-03-27T09:02:45.799Z,9.32
2023-03-27T09:05:23.436Z,9.20
2023-03-27T09:07:59.746Z,11.85
2023-03-27T09:10:33.536Z,9.20
2023-03-27T09:13:03.264Z,8.30
2023-03-27T09:15:36.826Z,13.38
2023-03-27T09:18:11.252Z,9.15
2023-03-27T09:21:02.429Z,8.50
2023-03-27T09:23:35.910Z,9.03
2023-03-27T09:26:10.613Z,12.38
2023-03-27T09:28:48.599Z,9.05
2023-03-27T09:31:21.435Z,8.25
2023-03-27T09:33:48.094Z,12.93
2023-03-27T09:36:14.677Z,12.57
2023-03-27T09:38:47.769Z,10.88
2023-03-27T09:41:17.628Z,12.35
2023-03-27T09:44:02.214Z,8.70
2023-03-27T09:46:29.197Z,8.45
2023-03-27T09:49:11.791Z,10.93
2023-03-27T09:51:42.911Z,7.93
2023-03-27T09:54:10.864Z,8.73
2023-03-27T09:57:04.180Z,7.50
2023-03-27T09:59:36.844Z,11.50
2023-03-27T10:02:18.856Z,7.27
2023-03-27T10:05:04.715Z,6.30
2023-03-27T10:07:31.280Z,8.10
2023-03-27T10:10:09.382Z,9.70
2023-03-27T10:12:37.402Z,8.52
2023-03-27T10:15:06.651Z,13.67
2023-03-27T10:17:38.872Z,10.02
2023-03-27T10:20:12.835Z,10.23
2023-03-27T10:22:54.708Z,10.32
2023-03-27T10:25:29.132Z,9.95
2023-03-27T10:28:17.568Z,8.30
2023-03-27T10:30:44.828Z,6.10
2023-03-27T10:33:11.463Z,8.48
2023-03-27T10:35:43.018Z,6.20
2023-03-27T10:38:15.456Z,7.95
2023-03-27T10:40:47.678Z,7.93
2023-03-27T10:43:30.548Z,5.43
2023-03-27T10:46:01.600Z,7.60
2023-03-27T10:48:49.676Z,10.40
2023-03-27T10:51:43.001Z,10.60
2023-03-27T10:54:23.085Z,6.83
2023-03-27T10:57:15.795Z,7.55
2023-03-27T10:59:45.370Z,6.78
2023-03-27T11:02:34.901Z,5.05
2023-03-27T11:05:07.348Z,7.95
2023-03-27T11:07:39.682Z,6.93
2023-03-27T11:10:24.718Z,4.85
2023-03-27T11:13:08.517Z,4.43
2023-03-27T11:15:48.230Z,3.88
2023-03-27T11:18:25.647Z,3.53
2023-03-27T11:20:57.368Z,5.60
2023-03-27T11:23:32.724Z,3.67
2023-03-27T11:26:02.837Z,2.80
2023-03-27T11:28:43.733Z,2.95
2023-03-27T11:31:11.861Z,3.92
2023-03-27T11:33:49.568Z,2.73
2023-03-27T11:36:18.744Z,6.97
2023-03-27T11:39:02.155Z,4.03
2023-03-27T11:41:28.988Z,3.50
2023-03-27T11:43:55.511Z,7.90
2023-03-27T11:46:46.026Z,5.83
2023-03-27T11:49:15.521Z,10.23
2023-03-27T11:51:59.976Z,9.77
2023-03-27T11:54:50.265Z,11.55
2023-03-27T11:57:25.130Z,6.72
2023-03-27T12:00:13.199Z,6.57
2023-03-27T12:02:57.549Z,4.57
2023-03-27T12:05:59.038Z,5.28
2023-03-27T12:08:36.760Z,6.57
2023-03-27T12:11:07.008Z,5.60
2023-03-27T12:14:01.092Z,5.93
2023-03-27T12:16:53.962Z,5.82
2023-03-27T12:19:28.885Z,6.78
2023-03-27T12:22:09.316Z,5.35
2023-03-27T12:25:00.139Z,5.97
2023-03-27T12:27:32.497Z,5.97
2023-03-27T12:30:04.898Z,5.18
2023-03-27T12:33:02.473Z,7.80
2023-03-27T12:35:52.123Z,7.85
2023-03-27T12:38:18.589Z,5.70
2023-03-27T12:41:00.635Z,6.50
2023-03-27T12:43:32.398Z,6.15
2023-03-27T12:46:23.483Z,3.08
2023-03-27T12:48:50.084Z,4.50
2023-03-27T12:51:16.619Z,6.60
2023-03-27T12:53:48.138Z,7.20
2023-03-27T12:56:17.376Z,5.65
2023-03-27T12:58:49.330Z,9.27
2023-03-27T13:01:51.635Z,8.20
2023-03-27T13:04:56.060Z,13.73
2023-03-27T13:07:31.651Z,18.00
2023-03-27T13:10:01.270Z,14.13
2023-03-27T13:12:45.016Z,16.42
2023-03-27T13:15:26.751Z,13.13
2023-03-27T13:18:34.641Z,11.05
2023-03-27T13:21:23.032Z,9.93
2023-03-27T13:23:59.903Z,11.07
2023-03-27T13:26:43.358Z,11.35
2023-03-27T13:29:16.771Z,12.25
2023-03-27T13:31:46.197Z,8.98
2023-03-27T13:34:40.261Z,7.97
2023-03-27T13:37:09.617Z,7.93
2023-03-27T13:39:47.099Z,4.85
2023-03-27T13:42:20.847Z,4.70
2023-03-27T13:45:00.007Z,4.90
2023-03-27T13:48:01.264Z,6.70
2023-03-27T13:50:59.289Z,8.75
2023-03-27T13:54:02.631Z,5.95
2023-03-27T13:56:52.324Z,6.20
2023-03-27T13:59:28.014Z,6.10
2023-03-27T14:02:11.260Z,7.00
2023-03-27T14:04:52.669Z,6.47
2023-03-27T14:07:52.235Z,5.93
2023-03-27T14:10:27.731Z,5.32
2023-03-27T14:13:13.338Z,6.68
2023-03-27T14:16:05.439Z,5.07
2023-03-27T14:19:07.792Z,7.05
2023-03-27T14:21:57.333Z,4.03
2023-03-27T14:24:40.601Z,5.05
2023-03-27T14:27:13.885Z,6.63
2023-03-27T14:29:40.385Z,5.73
2023-03-27T14:32:15.581Z,6.07
2023-03-27T14:37:32.552Z,4.53
2023-03-27T14:39:59.851Z,4.80
2023-03-27T14:42:32.062Z,5.13
2023-03-27T14:45:20.662Z,5.88
2023-03-27T14:47:54.868Z,4.68
2023-03-27T14:50:22.086Z,5.20
2023-03-27T14:52:58.421Z,5.65
2023-03-27T14:55:30.172Z,4.90
2023-03-27T14:57:59.968Z,5.90
2023-03-27T15:00:30.418Z,3.97
2023-03-27T15:03:03.535Z,3.67
2023-03-27T15:05:30.184Z,4.50
2023-03-27T15:07:56.744Z,3.57
2023-03-27T15:10:31.208Z,4.90
2023-03-27T15:12:58.046Z,5.47
2023-03-27T15:15:39.901Z,5.97
2023-03-27T15:18:15.110Z,7.85
2023-03-27T15:20:43.453Z,5.20
2023-03-27T15:23:44.585Z,5.60
2023-03-27T15:26:28.128Z,5.63
2023-03-27T15:29:01.151Z,6.72
2023-03-27T15:31:29.134Z,7.53
2023-03-27T15:34:00.784Z,8.53
2023-03-27T15:36:28.672Z,7.95
2023-03-27T15:38:58.910Z,10.45
2023-03-27T15:41:28.047Z,7.82
2023-03-27T15:44:13.068Z,7.20
2023-03-27T15:46:53.698Z,7.50
2023-03-27T15:49:21.878Z,6.25
2023-03-27T15:51:48.752Z,9.52
2023-03-27T15:54:33.664Z,7.35
2023-03-27T15:57:09.758Z,8.52
2023-03-27T15:59:52.755Z,10.17
2023-03-27T16:02:23.727Z,10.13
2023-03-27T16:04:53.393Z,8.45
2023-03-27T16:07:33.124Z,10.00
2023-03-27T16:10:01.705Z,8.52
2023-03-27T16:12:50.414Z,4.87
2023-03-27T16:15:32.605Z,5.18
2023-03-27T16:18:02.978Z,5.07
2023-03-27T16:20:35.280Z,4.47
2023-03-27T16:23:01.759Z,4.38
2023-03-27T16:25:28.264Z,5.33
2023-03-27T16:27:55.066Z,6.38
2023-03-27T16:30:33.852Z,8.40
2023-03-27T16:33:00.609Z,7.32
2023-03-27T16:35:28.457Z,9.75
2023-03-27T16:37:55.083Z,6.97
2023-03-27T16:40:21.608Z,6.97
2023-03-27T16:42:49.046Z,6.90
2023-03-27T16:45:15.533Z,6.35
2023-03-27T16:47:42.086Z,4.95
2023-03-27T16:50:16.669Z,10.43
2023-03-27T16:52:43.160Z,9.05
2023-03-27T16:55:09.737Z,5.95
2023-03-27T16:57:36.337Z,7.97
2023-03-27T17:00:04.215Z,5.47
2023-03-27T17:02:32.032Z,8.70
2023-03-27T17:05:00.776Z,9.07
2023-03-27T17:07:27.309Z,10.88
2023-03-27T17:09:53.869Z,12.45
2023-03-27T17:12:20.367Z,14.43
2023-03-27T17:14:46.792Z,19.83
2023-03-27T17:17:13.330Z,22.48
2023-03-27T17:19:39.895Z,26.95
2023-03-27T17:22:06.395Z,30.02
2023-03-27T17:24:36.074Z,27.77
2023-03-27T17:27:09.370Z,27.47
2023-03-27T17:29:35.841Z,23.55
2023-03-27T17:32:02.350Z,22.88
2023-03-27T17:34:29.324Z,24.95
2023-03-27T17:36:55.809Z,24.73
2023-03-27T17:39:23.497Z,21.80
2023-03-27T17:41:50.224Z,26.60
2023-03-27T17:44:16.688Z,23.88
2023-03-27T17:46:43.428Z,28.13
2023-03-27T17:49:10.530Z,26.75
2023-03-27T17:51:37.163Z,29.57
2023-03-27T17:54:03.722Z,21.75
2023-03-27T17:56:30.436Z,18.58
2023-03-27T17:58:56.982Z,17.55
2023-03-27T18:01:24.580Z,22.52
2023-03-27T18:03:51.438Z,20.47
2023-03-27T18:06:18.319Z,19.17
2023-03-27T18:08:46.233Z,18.10
2023-03-27T18:11:14.664Z,21.35
2023-03-27T18:13:41.279Z,17.60
2023-03-27T18:16:09.076Z,21.40
2023-03-27T18:18:35.840Z,16.08
2023-03-27T18:21:02.509Z,21.38
2023-03-27T18:23:28.998Z,21.35
2023-03-27T18:25:55.790Z,22.30
2023-03-27T18:28:22.614Z,22.20
2023-03-27T18:31:01.595Z,24.73
2023-03-27T18:33:30.093Z,22.65
2023-03-27T18:35:57.581Z,21.92
2023-03-27T18:38:26.065Z,21.27
2023-03-27T18:40:52.880Z,18.93
2023-03-27T18:43:19.581Z,13.65
2023-03-27T18:45:46.507Z,14.45
2023-03-27T18:48:13.071Z,15.70
2023-03-27T18:50:39.580Z,14.18
2023-03-27T18:53:06.371Z,15.70
2023-03-27T18:55:32.850Z,12.82
2023-03-27T18:57:59.302Z,13.70
2023-03-27T19:00:26.028Z,14.43
2023-03-27T19:02:52.591Z,15.98
2023-03-27T19:05:19.183Z,12.40
2023-03-27T19:07:45.688Z,14.07
2023-03-27T19:10:12.184Z,12.63
2023-03-27T19:12:38.631Z,12.43
2023-03-27T19:15:17.302Z,13.82
2023-03-27T19:17:46.160Z,15.03
2023-03-27T19:20:12.706Z,10.80
2023-03-27T19:22:39.180Z,10.82
2023-03-27T19:25:06.123Z,15.48
2023-03-27T19:27:39.101Z,12.77
2023-03-27T19:30:08.162Z,14.53
2023-03-27T19:32:34.800Z,16.33
2023-03-27T19:35:01.694Z,11.75
2023-03-27T19:37:28.294Z,12.50
2023-03-27T19:39:54.796Z,12.60
2023-03-27T19:42:21.313Z,10.63
2023-03-27T19:44:47.774Z,10.88
2023-03-27T19:47:14.256Z,9.77
2023-03-27T19:49:40.946Z,12.93
2023-03-27T19:52:07.388Z,13.07
2023-03-27T19:54:33.872Z,14.73
2023-03-27T19:57:01.043Z,16.50
2023-03-27T19:59:30.740Z,20.35
2023-03-27T20:01:58.360Z,19.45
2023-03-27T20:04:25.152Z,29.83
2023-03-27T20:06:51.705Z,30.97
2023-03-27T20:09:18.163Z,34.58
2023-03-27T20:11:44.685Z,33.17
2023-03-27T20:14:11.571Z,31.90
2023-03-27T20:16:38.767Z,34.67
2023-03-27T20:19:05.839Z,32.87
2023-03-27T20:21:35.286Z,29.52
2023-03-27T20:24:02.191Z,28.02
2023-03-27T20:26:29.004Z,30.85
2023-03-27T20:28:56.533Z,34.08
2023-03-27T20:31:23.129Z,32.67
2023-03-27T20:33:49.640Z,36.88
2023-03-27T20:36:16.162Z,39.28
2023-03-27T20:38:42.691Z,37.75
2023-03-27T20:41:09.178Z,33.10
2023-03-27T20:43:35.635Z,25.80
2023-03-27T20:46:03.554Z,27.35
2023-03-27T20:48:31.910Z,23.92
2023-03-27T20:50:58.411Z,26.60
2023-03-27T20:53:25.806Z,24.35
2023-03-27T20:55:59.853Z,35.43
2023-03-27T20:58:27.251Z,46.55
2023-03-27T21:00:54.487Z,46.70
2023-03-27T21:03:21.146Z,54.10
2023-03-27T21:05:47.896Z,50.47
2023-03-27T21:08:15.172Z,46.23
2023-03-27T21:10:41.872Z,40.30
2023-03-27T21:13:08.363Z,42.63
2023-03-27T21:15:35.061Z,37.67
2023-03-27T21:18:02.082Z,29.63
2023-03-27T21:20:28.652Z,31.97
2023-03-27T21:22:55.139Z,36.42
2023-03-27T21:25:22.410Z,43.70
2023-03-27T21:27:49.224Z,39.78
2023-03-27T21:30:16.587Z,38.90
2023-03-27T21:32:43.388Z,29.37
2023-03-27T21:35:10.032Z,35.65
2023-03-27T21:37:36.517Z,39.45
2023-03-27T21:40:03.132Z,31.08
2023-03-27T21:42:29.908Z,24.98
2023-03-27T21:44:57.350Z,22.70
2023-03-27T21:47:29.575Z,19.05
2023-03-27T21:50:00.995Z,21.15
2023-03-27T21:52:27.588Z,25.17
2023-03-27T21:55:02.953Z,27.17
2023-03-27T21:57:31.118Z,21.67
2023-03-27T21:59:57.788Z,18.75
2023-03-27T22:02:24.281Z,27.10
2023-03-27T22:04:50.945Z,30.80
2023-03-27T22:07:17.508Z,34.95
2023-03-27T22:09:44.346Z,38.03
2023-03-27T22:12:11.037Z,39.92
2023-03-27T22:14:37.908Z,42.35
2023-03-27T22:17:04.982Z,42.38
2023-03-27T22:19:31.627Z,33.88
2023-03-27T22:21:59.613Z,34.43
2023-03-27T22:24:26.174Z,45.35
2023-03-27T22:26:52.761Z,39.42
2023-03-27T22:29:19.241Z,36.47
2023-03-27T22:31:45.770Z,29.10
2023-03-27T22:34:12.604Z,32.33
2023-03-27T22:36:39.177Z,29.95
2023-03-27T22:39:05.692Z,39.63
2023-03-27T22:41:32.344Z,28.38
2023-03-27T22:44:01.044Z,28.88
2023-03-27T22:46:27.639Z,22.40
2023-03-27T22:48:55.846Z,34.58
2023-03-27T22:51:23.226Z,35.30
2023-03-27T22:53:49.816Z,22.55
2023-03-27T22:56:16.380Z,16.27
2023-03-27T22:58:42.864Z,18.20
2023-03-27T23:01:09.674Z,25.33
2023-03-27T23:03:36.462Z,20.67
2023-03-27T23:06:03.315Z,21.80
2023-03-27T23:08:30.257Z,20.20
2023-03-27T23:10:58.778Z,21.97
2023-03-27T23:13:27.294Z,23.92
2023-03-27T23:15:54.874Z,21.55
2023-03-27T23:18:22.113Z,29.85
2023-03-27T23:20:52.485Z,28.17
2023-03-27T23:23:19.023Z,28.20
2023-03-27T23:25:45.431Z,30.92
2023-03-27T23:28:11.943Z,26.63
2023-03-27T23:30:38.418Z,32.53
2023-03-27T23:33:05.001Z,24.27
2023-03-27T23:35:31.640Z,24.40
2023-03-27T23:37:58.134Z,30.35
2023-03-27T23:40:24.655Z,21.25
2023-03-27T23:42:51.112Z,21.85
2023-03-27T23:45:17.670Z,23.67
2023-03-27T23:47:44.162Z,32.83
2023-03-27T23:50:10.824Z,14.60
2023-03-27T23:52:37.305Z,4.72
2023-03-27T23:55:04.046Z,21.48
2023-03-27T23:57:30.493Z,23.45
2023-03-27T23:59:56.937Z,47.83
